Time;durP1;ratioP1;P1;durP2;ratioP2;P2;SDS_P1;SDS_P2;PMS_P1;PMS_P2;Temp;Humidity;BMP_temperature;BMP_pressure;BME280_temperature;BME280_humidity;BME280_pressure;Samples;Min_cycle;Max_cycle;Signal;HPM_P1;HPM_P2
2021/06/22 00:00:50;;;;;;;5.97;2.25;;;;;;;20.01;nan;100851.63;5065419;28;20052;-50
2021/06/22 00:03:16;;;;;;;6.28;2.47;;;;;;;19.88;nan;100844.31;5065866;28;20992;-48
2021/06/22 00:05:41;;;;;;;4.97;2.50;;;;;;;19.82;nan;100838.19;5064135;28;20453;-49
2021/06/22 00:08:07;;;;;;;5.18;1.90;;;;;;;19.85;nan;100842.22;5065031;28;20028;-48
2021/06/22 00:10:33;;;;;;;5.82;2.10;;;;;;;19.84;nan;100835.97;5065501;28;20202;-48
2021/06/22 00:12:59;;;;;;;5.70;2.55;;;;;;;19.83;nan;100839.00;5063552;28;20282;-48
2021/06/22 00:15:26;;;;;;;5.90;2.33;;;;;;;19.80;nan;100837.72;5064478;28;20040;-48
2021/06/22 00:17:53;;;;;;;3.28;2.47;;;;;;;19.75;nan;100848.72;5063824;28;20464;-49
2021/06/22 00:20:21;;;;;;;4.40;2.20;;;;;;;19.77;nan;100834.81;5064108;28;20573;-48
2021/06/22 00:22:48;;;;;;;3.20;2.15;;;;;;;19.75;nan;100831.56;5064771;28;20039;-48
2021/06/22 00:25:16;;;;;;;3.72;2.28;;;;;;;19.70;nan;100840.66;5066621;28;20316;-48
2021/06/22 00:27:42;;;;;;;3.20;2.40;;;;;;;19.67;nan;100845.91;5064951;28;20032;-48
2021/06/22 00:30:08;;;;;;;5.82;2.72;;;;;;;19.61;nan;100840.59;5068336;28;20101;-49
2021/06/22 00:32:34;;;;;;;4.43;2.13;;;;;;;19.63;nan;100842.19;5058115;28;20036;-49
2021/06/22 00:35:00;;;;;;;3.63;2.58;;;;;;;19.65;nan;100846.22;5067829;28;20327;-49
2021/06/22 00:37:26;;;;;;;3.97;2.30;;;;;;;19.61;nan;100848.75;5063046;28;20103;-48
2021/06/22 00:39:51;;;;;;;2.22;2.03;;;;;;;19.60;nan;100846.34;5064090;28;20029;-48
2021/06/22 00:42:17;;;;;;;4.45;2.67;;;;;;;19.59;nan;100863.75;5060528;28;20442;-48
2021/06/22 00:44:52;;;;;;;4.68;2.40;;;;;;;19.55;nan;100860.81;5063440;28;20050;-48
2021/06/22 00:47:18;;;;;;;5.40;2.10;;;;;;;19.54;nan;100859.22;5065714;28;20137;-48
2021/06/22 00:49:45;;;;;;;6.95;3.00;;;;;;;19.43;nan;100862.44;5070098;28;20174;-48
2021/06/22 00:52:10;;;;;;;4.75;2.63;;;;;;;19.44;nan;100858.63;5062261;28;20434;-48
2021/06/22 00:54:36;;;;;;;5.80;2.60;;;;;;;19.43;nan;100860.53;5063931;28;20113;-48
2021/06/22 00:57:05;;;;;;;4.93;2.80;;;;;;;19.42;nan;100853.47;5068762;28;20043;-48
2021/06/22 00:59:31;;;;;;;6.07;3.03;;;;;;;19.40;nan;100857.63;5061163;28;20113;-47
2021/06/22 01:01:57;;;;;;;5.68;2.85;;;;;;;19.36;nan;100862.84;5065567;28;20032;-48
2021/06/22 01:04:23;;;;;;;4.88;2.67;;;;;;;19.36;nan;100868.28;5067271;28;20040;-48
2021/06/22 01:06:48;;;;;;;7.05;3.38;;;;;;;19.35;nan;100871.28;5066244;28;20029;-48
2021/06/22 01:09:14;;;;;;;22.02;4.00;;;;;;;19.41;nan;100867.38;5062772;28;20052;-48
2021/06/22 01:11:39;;;;;;;8.23;3.80;;;;;;;19.39;nan;100867.69;5060181;28;20111;-48
2021/06/22 01:14:05;;;;;;;7.40;4.75;;;;;;;19.42;nan;100872.50;5066367;28;20595;-48
2021/06/22 01:16:31;;;;;;;6.50;4.10;;;;;;;19.35;nan;100874.00;5058675;28;20474;-48
2021/06/22 01:18:58;;;;;;;5.93;4.05;;;;;;;19.41;nan;100864.66;5065964;28;20025;-48
2021/06/22 01:21:26;;;;;;;6.68;4.47;;;;;;;19.45;nan;100877.31;5062979;28;20286;-48
2021/06/22 01:23:51;;;;;;;7.68;4.88;;;;;;;19.43;nan;100884.19;5065798;28;20168;-48
2021/06/22 01:26:17;;;;;;;8.32;6.07;;;;;;;19.14;nan;100887.19;5063843;28;20032;-48
2021/06/22 01:28:42;;;;;;;8.13;5.97;;;;;;;18.80;nan;100899.22;5064625;28;20200;-48
2021/06/22 01:31:11;;;;;;;10.10;6.07;;;;;;;18.90;nan;100906.41;5064896;28;20063;-48
2021/06/22 01:33:38;;;;;;;11.52;7.10;;;;;;;18.93;nan;100898.47;5062400;28;20515;-48
2021/06/22 01:36:04;;;;;;;10.68;6.95;;;;;;;19.24;nan;100897.88;5060879;28;20477;-48
2021/06/22 01:38:29;;;;;;;13.82;8.70;;;;;;;19.26;nan;100899.19;5063821;28;20032;-49
2021/06/22 01:40:55;;;;;;;13.68;9.65;;;;;;;19.10;nan;100908.72;5063794;28;20024;-49
2021/06/22 01:43:24;;;;;;;16.50;10.57;;;;;;;19.05;nan;100916.19;5061445;28;20032;-48
2021/06/22 01:45:50;;;;;;;16.20;11.63;;;;;;;19.11;nan;100920.41;5061512;28;20025;-48
2021/06/22 01:48:15;;;;;;;25.52;14.48;;;;;;;19.19;nan;100927.84;5063567;28;20040;-48
2021/06/22 01:50:41;;;;;;;24.33;15.65;;;;;;;19.22;nan;100936.22;5063991;28;20451;-49
2021/06/22 01:53:08;;;;;;;35.58;17.85;;;;;;;19.36;nan;100938.09;5059991;28;20406;-53
2021/06/22 01:55:35;;;;;;;31.30;17.95;;;;;;;19.42;nan;100943.16;5061248;28;20045;-51
2021/06/22 01:58:03;;;;;;;33.35;17.88;;;;;;;19.50;nan;100950.59;5064300;28;20032;-48
2021/06/22 02:00:28;;;;;;;37.63;19.67;;;;;;;19.54;nan;100951.63;5061612;28;20577;-48
2021/06/22 02:02:54;;;;;;;35.28;20.52;;;;;;;19.63;nan;100949.00;5060202;28;20043;-51
2021/06/22 02:05:20;;;;;;;31.63;20.45;;;;;;;19.69;nan;100949.69;5062665;28;20016;-50
2021/06/22 02:07:45;;;;;;;35.33;21.45;;;;;;;19.72;nan;100955.31;5058027;28;20032;-48
2021/06/22 02:10:11;;;;;;;34.33;22.25;;;;;;;19.82;nan;100951.59;5058823;28;20025;-50
2021/06/22 02:12:37;;;;;;;33.45;22.17;;;;;;;19.87;nan;100956.91;5060980;28;20040;-49
2021/06/22 02:15:05;;;;;;;32.20;20.48;;;;;;;19.98;nan;100961.03;5063989;28;20113;-48
2021/06/22 02:17:31;;;;;;;28.85;19.77;;;;;;;20.03;nan;100951.94;5061373;28;20106;-48
2021/06/22 02:19:56;;;;;;;36.20;19.20;;;;;;;20.09;nan;100956.16;5059653;28;20032;-49
2021/06/22 02:22:22;;;;;;;32.83;19.75;;;;;;;20.21;nan;100962.66;5055396;28;20021;-49
2021/06/22 02:24:48;;;;;;;31.00;19.98;;;;;;;20.21;nan;100965.38;5063182;28;20024;-48
2021/06/22 02:27:33;;;;;;;29.52;20.50;;;;;;;20.18;nan;100971.44;5063767;28;20031;-52
2021/06/22 02:30:00;;;;;;;31.85;20.35;;;;;;;20.29;nan;100980.19;5060804;28;20075;-49
2021/06/22 02:32:26;;;;;;;25.38;19.35;;;;;;;20.36;nan;100982.47;5064787;28;20111;-48
2021/06/22 02:34:53;;;;;;;31.83;19.65;;;;;;;20.42;nan;100986.72;5065377;28;20032;-50
2021/06/22 02:37:18;;;;;;;28.73;20.40;;;;;;;20.35;nan;100986.31;5061800;28;20024;-49
2021/06/22 02:39:45;;;;;;;28.92;19.73;;;;;;;20.49;nan;100993.34;5062734;28;20470;-49
2021/06/22 02:42:11;;;;;;;26.17;20.90;;;;;;;20.50;nan;101000.41;5059305;28;20482;-50
2021/06/22 02:44:37;;;;;;;30.90;20.00;;;;;;;20.59;nan;101014.06;5060651;28;20043;-49
2021/06/22 02:47:03;;;;;;;24.20;19.63;;;;;;;20.67;nan;101020.72;5062563;28;20048;-49
2021/06/22 02:49:28;;;;;;;24.63;18.80;;;;;;;20.69;nan;101023.94;5061758;28;20393;-48
2021/06/22 02:51:54;;;;;;;28.70;20.60;;;;;;;20.69;nan;101016.56;5059849;28;20556;-49
2021/06/22 02:54:20;;;;;;;24.17;18.67;;;;;;;20.77;nan;101021.25;5064086;28;20051;-51
2021/06/22 02:56:45;;;;;;;22.13;17.90;;;;;;;20.79;nan;101026.38;5063131;28;20086;-49
2021/06/22 02:59:11;;;;;;;26.80;19.02;;;;;;;20.86;nan;101024.06;5062560;28;20051;-49
2021/06/22 03:01:36;;;;;;;21.73;17.13;;;;;;;20.84;nan;101037.19;5062128;28;20024;-49
2021/06/22 03:04:02;;;;;;;22.67;17.65;;;;;;;20.89;nan;101034.31;5062339;28;20048;-51
2021/06/22 03:06:27;;;;;;;23.73;16.77;;;;;;;20.96;nan;101039.31;5063997;28;20282;-51
2021/06/22 03:08:53;;;;;;;27.45;17.92;;;;;;;21.02;nan;101049.00;5061742;28;20035;-48
2021/06/22 03:11:19;;;;;;;27.55;18.10;;;;;;;20.93;nan;101050.84;5073872;28;20182;-50
2021/06/22 03:13:44;;;;;;;20.25;17.05;;;;;;;21.03;nan;101050.59;5059781;28;20497;-50
2021/06/22 03:16:10;;;;;;;23.85;17.13;;;;;;;20.96;nan;101051.00;5061316;28;20378;-52
2021/06/22 03:18:35;;;;;;;22.95;18.35;;;;;;;21.00;nan;101056.66;5060131;28;20095;-49
2021/06/22 03:21:00;;;;;;;24.98;18.50;;;;;;;20.98;nan;101067.84;5063196;28;20049;-51
2021/06/22 03:23:26;;;;;;;25.42;18.75;;;;;;;20.95;nan;101065.75;5059847;28;20066;-48
2021/06/22 03:25:51;;;;;;;32.10;21.45;;;;;;;20.84;nan;101063.59;5060138;28;20035;-51
2021/06/22 03:28:17;;;;;;;42.03;23.23;;;;;;;20.73;nan;101072.00;5060489;28;20097;-48
2021/06/22 03:30:43;;;;;;;45.80;25.70;;;;;;;20.47;nan;101073.72;5058782;28;20577;-51
2021/06/22 03:33:09;;;;;;;40.72;23.23;;;;;;;20.28;nan;101075.72;5063160;28;20024;-51
2021/06/22 03:35:36;;;;;;;52.80;26.65;;;;;;;19.95;nan;101085.94;5061871;28;20032;-51
2021/06/22 03:38:01;;;;;;;50.58;28.20;;;;;;;19.78;nan;101075.66;5063764;28;20305;-52
2021/06/22 03:40:27;;;;;;;49.97;27.25;;;;;;;19.74;nan;101077.34;5061984;28;20036;-48
2021/06/22 03:42:52;;;;;;;52.30;27.15;;;;;;;19.56;nan;101074.41;5062067;28;20580;-52
2021/06/22 03:45:18;;;;;;;58.05;26.83;;;;;;;19.61;nan;101070.81;5061591;28;20024;-51
2021/06/22 03:47:43;;;;;;;51.08;27.75;;;;;;;19.59;nan;101073.03;5059431;28;20051;-50
2021/06/22 03:50:10;;;;;;;54.75;29.15;;;;;;;19.21;nan;101077.72;5065137;28;20036;-51
2021/06/22 03:52:35;;;;;;;51.58;26.92;;;;;;;19.35;nan;101080.50;5062254;28;20081;-48
2021/06/22 03:55:01;;;;;;;47.83;26.75;;;;;;;19.32;nan;101084.63;5057763;28;20024;-49
2021/06/22 03:57:26;;;;;;;55.72;26.90;;;;;;;19.31;nan;101083.00;5063228;28;20703;-52
2021/06/22 03:59:52;;;;;;;49.90;26.20;;;;;;;19.28;nan;101083.59;5061558;28;20024;-50
2021/06/22 04:02:19;;;;;;;53.92;27.27;;;;;;;19.20;nan;101090.50;5060662;28;20439;-51
2021/06/22 04:04:44;;;;;;;43.72;24.27;;;;;;;19.37;nan;101078.28;5061806;28;20075;-49
2021/06/22 04:07:11;;;;;;;43.25;26.00;;;;;;;19.28;nan;101089.84;5061238;28;20580;-49
2021/06/22 04:09:37;;;;;;;48.15;25.55;;;;;;;19.17;nan;101090.28;5060592;28;20462;-50
2021/06/22 04:12:02;;;;;;;43.78;24.10;;;;;;;19.27;nan;101090.94;5062254;28;20090;-49
2021/06/22 04:14:28;;;;;;;39.80;23.50;;;;;;;19.48;nan;101094.09;5061657;28;20697;-49
2021/06/22 04:16:54;;;;;;;40.65;22.38;;;;;;;19.65;nan;101092.75;5066036;28;20496;-49
2021/06/22 04:19:19;;;;;;;35.42;21.23;;;;;;;19.75;nan;101098.00;5061933;28;20016;-50
2021/06/22 04:21:45;;;;;;;43.80;22.45;;;;;;;19.61;nan;101098.00;5064111;28;20538;-50
2021/06/22 04:24:11;;;;;;;33.50;19.67;;;;;;;19.71;nan;101099.69;5063535;28;20023;-48
2021/06/22 04:26:36;;;;;;;30.63;19.60;;;;;;;19.68;nan;101089.44;5066108;28;20024;-49
2021/06/22 04:29:03;;;;;;;34.45;21.38;;;;;;;19.67;nan;101094.06;5061554;28;20123;-49
2021/06/22 04:31:29;;;;;;;35.15;19.05;;;;;;;19.71;nan;101092.34;5061964;28;20528;-50
2021/06/22 04:33:55;;;;;;;30.75;17.67;;;;;;;19.91;nan;101091.16;5066009;28;20040;-49
2021/06/22 04:36:20;;;;;;;35.33;19.63;;;;;;;20.06;nan;101099.00;5062341;28;20056;-50
2021/06/22 04:38:46;;;;;;;30.65;19.17;;;;;;;20.17;nan;101094.97;5060132;28;20120;-51
2021/06/22 04:41:11;;;;;;;33.25;18.27;;;;;;;20.19;nan;101098.19;5063673;28;20370;-48
2021/06/22 04:43:37;;;;;;;34.00;18.42;;;;;;;20.25;nan;101100.81;5061568;28;20028;-50
2021/06/22 04:46:02;;;;;;;31.55;18.75;;;;;;;20.27;nan;101104.84;5063173;28;20566;-49
2021/06/22 04:48:28;;;;;;;33.03;18.30;;;;;;;20.21;nan;101104.16;5064173;28;20024;-49
2021/06/22 04:50:58;;;;;;;30.65;18.83;;;;;;;20.22;nan;101118.56;5061374;28;20032;-51
2021/06/22 04:53:24;;;;;;;34.63;18.92;;;;;;;20.22;nan;101124.78;5063505;28;20111;-50
2021/06/22 04:55:49;;;;;;;31.15;18.55;;;;;;;20.20;nan;101129.75;5062251;28;20419;-49
2021/06/22 04:58:15;;;;;;;37.63;19.00;;;;;;;20.23;nan;101128.31;5062999;28;20128;-49
2021/06/22 05:00:40;;;;;;;32.47;18.15;;;;;;;20.09;nan;101125.59;5065608;28;20028;-49
2021/06/22 05:03:07;;;;;;;33.08;18.38;;;;;;;19.94;nan;101123.22;5064274;28;20502;-52
2021/06/22 05:05:32;;;;;;;32.97;18.33;;;;;;;20.04;nan;101122.19;5052548;28;20483;-52
2021/06/22 05:07:58;;;;;;;30.08;17.27;;;;;;;20.07;nan;101122.38;5063845;28;20038;-49
2021/06/22 05:10:23;;;;;;;25.10;17.08;;;;;;;19.89;nan;101134.16;5063560;28;20028;-53
2021/06/22 05:12:50;;;;;;;30.30;18.38;;;;;;;19.66;nan;101132.44;5068499;28;20027;-50
2021/06/22 05:15:16;;;;;;;31.77;18.38;;;;;;;19.56;nan;101139.63;5065297;28;20487;-50
2021/06/22 05:17:41;;;;;;;30.25;18.00;;;;;;;19.76;nan;101137.69;5063195;28;20033;-51
2021/06/22 05:20:08;;;;;;;29.75;17.15;;;;;;;19.80;nan;101135.97;5061943;28;20027;-48
2021/06/22 05:22:34;;;;;;;31.52;17.48;;;;;;;19.79;nan;101146.03;5063911;28;20043;-52
2021/06/22 05:24:59;;;;;;;28.08;16.58;;;;;;;19.70;nan;101153.28;5062668;28;20032;-50
2021/06/22 05:27:25;;;;;;;29.52;16.83;;;;;;;19.72;nan;101152.97;5061570;28;20089;-49
2021/06/22 05:29:50;;;;;;;31.17;16.98;;;;;;;19.64;nan;101167.25;5062421;28;20064;-50
2021/06/22 05:32:17;;;;;;;29.30;16.45;;;;;;;19.74;nan;101173.31;5064910;28;20394;-50
2021/06/22 05:34:43;;;;;;;28.80;17.15;;;;;;;19.61;nan;101169.47;5063185;28;20131;-50
2021/06/22 05:37:08;;;;;;;26.88;16.50;;;;;;;19.56;nan;101171.44;5063394;28;20031;-52
2021/06/22 05:39:34;;;;;;;27.17;16.50;;;;;;;19.50;nan;101181.56;5057463;28;20114;-50
2021/06/22 05:42:00;;;;;;;27.52;15.23;;;;;;;19.66;nan;101176.72;5063012;28;20045;-49
2021/06/22 05:44:25;;;;;;;27.13;15.43;;;;;;;19.49;nan;101182.69;5060382;28;20047;-52
2021/06/22 05:46:51;;;;;;;26.42;15.30;;;;;;;19.59;nan;101181.75;5067685;28;20128;-49
2021/06/22 05:49:16;;;;;;;29.42;14.30;;;;;;;19.47;nan;101193.03;5065198;28;20394;-53
2021/06/22 05:51:42;;;;;;;25.45;13.20;;;;;;;19.56;nan;101196.72;5061570;28;20119;-50
2021/06/22 05:54:08;;;;;;;18.83;12.00;;;;;;;19.36;nan;101191.59;5061850;28;20032;-49
2021/06/22 05:56:33;;;;;;;24.17;12.18;;;;;;;19.46;nan;101190.63;5065052;28;20033;-51
2021/06/22 05:58:59;;;;;;;22.15;11.75;;;;;;;19.60;nan;101191.50;5063853;28;20153;-49
2021/06/22 06:01:24;;;;;;;21.70;12.10;;;;;;;19.71;nan;101197.56;5062900;28;20031;-49
2021/06/22 06:03:50;;;;;;;29.42;11.25;;;;;;;19.78;nan;101206.16;5058283;28;20025;-51
2021/06/22 06:06:15;;;;;;;20.58;10.38;;;;;;;19.79;nan;101205.06;5061635;28;20032;-49
2021/06/22 06:08:42;;;;;;;22.33;11.48;;;;;;;19.83;nan;101209.59;5064072;28;20024;-48
2021/06/22 06:11:08;;;;;;;26.20;12.02;;;;;;;19.61;nan;101210.25;5059680;28;20305;-51
2021/06/22 06:13:35;;;;;;;19.30;11.63;;;;;;;19.39;nan;101212.75;5065288;28;20036;-50
2021/06/22 06:16:02;;;;;;;17.88;11.05;;;;;;;19.64;nan;101217.00;5066939;28;20031;-50
2021/06/22 06:18:28;;;;;;;17.63;10.23;;;;;;;19.89;nan;101223.91;5064434;28;20471;-49
2021/06/22 06:20:55;;;;;;;18.10;10.43;;;;;;;19.68;nan;101217.19;5060195;28;20039;-53
2021/06/22 06:23:22;;;;;;;15.43;9.60;;;;;;;19.73;nan;101219.81;5061019;28;20504;-49
2021/06/22 06:25:48;;;;;;;20.25;9.75;;;;;;;19.50;nan;101216.91;5058842;28;20016;-50
2021/06/22 06:28:19;;;;;;;15.25;9.07;;;;;;;19.30;nan;101223.47;5064335;28;20495;-49
2021/06/22 06:30:44;;;;;;;16.65;8.88;;;;;;;19.27;nan;101223.25;5063362;28;20115;-49
2021/06/22 06:33:12;;;;;;;17.83;9.15;;;;;;;19.20;nan;101229.03;5066823;28;20485;-49
2021/06/22 06:35:38;;;;;;;15.75;8.32;;;;;;;19.23;nan;101238.53;5064883;28;20552;-52
2021/06/22 06:38:04;;;;;;;10.05;8.32;;;;;;;19.35;nan;101228.00;5063090;28;20036;-49
2021/06/22 06:40:29;;;;;;;15.52;8.57;;;;;;;19.30;nan;101239.78;5060742;28;20303;-51
2021/06/22 06:42:55;;;;;;;10.00;7.60;;;;;;;19.20;nan;101244.53;5055991;28;20405;-52
2021/06/22 06:45:20;;;;;;;16.85;8.95;;;;;;;18.91;nan;101245.47;5058872;28;20474;-50
2021/06/22 06:47:47;;;;;;;16.80;8.98;;;;;;;18.50;nan;101258.72;5062231;28;20025;-53
2021/06/22 06:50:13;;;;;;;15.20;8.45;;;;;;;18.70;nan;101257.69;5059961;28;20039;-52
2021/06/22 06:52:39;;;;;;;13.55;8.20;;;;;;;18.76;nan;101266.56;5061455;28;20075;-52
2021/06/22 06:55:24;;;;;;;13.73;7.70;;;;;;;18.69;nan;101281.31;5058548;28;20107;-49
2021/06/22 06:57:51;;;;;;;14.35;9.05;;;;;;;18.58;nan;101278.97;5060799;28;20031;-52
2021/06/22 07:00:18;;;;;;;15.18;7.97;;;;;;;18.69;nan;101288.66;5061278;28;20040;-49
2021/06/22 07:02:43;;;;;;;22.15;8.43;;;;;;;18.63;nan;101285.16;5058396;28;20490;-51
2021/06/22 07:05:09;;;;;;;19.67;9.82;;;;;;;18.75;nan;101283.97;5061326;28;20103;-49
2021/06/22 07:07:35;;;;;;;18.08;10.68;;;;;;;18.64;nan;101280.56;5058570;28;20452;-52
2021/06/22 07:10:00;;;;;;;16.65;9.52;;;;;;;18.64;nan;101285.97;5058380;28;20032;-53
2021/06/22 07:12:26;;;;;;;21.58;10.23;;;;;;;18.42;nan;101283.75;5062928;28;20147;-52
2021/06/22 07:14:52;;;;;;;20.30;11.65;;;;;;;18.53;nan;101284.47;5062692;28;20035;-50
2021/06/22 07:17:17;;;;;;;24.80;11.48;;;;;;;18.64;nan;101284.06;5055311;28;20507;-49
2021/06/22 07:19:43;;;;;;;17.17;10.77;;;;;;;18.83;nan;101289.56;5060202;28;20032;-49
2021/06/22 07:22:08;;;;;;;20.30;11.23;;;;;;;18.80;nan;101290.13;5057490;28;20078;-49
2021/06/22 07:24:34;;;;;;;28.13;12.10;;;;;;;18.80;nan;101284.69;5064025;28;20044;-53
2021/06/22 07:27:00;;;;;;;28.20;11.65;;;;;;;18.66;nan;101295.44;5062586;28;20024;-52
2021/06/22 07:29:25;;;;;;;23.70;11.52;;;;;;;18.69;nan;101291.38;5056337;28;20028;-51
2021/06/22 07:31:50;;;;;;;25.52;11.90;;;;;;;18.54;nan;101297.75;5064403;28;20025;-48
2021/06/22 07:34:16;;;;;;;26.67;11.48;;;;;;;18.54;nan;101305.06;5061176;28;20061;-48
2021/06/22 07:36:42;;;;;;;17.85;10.63;;;;;;;18.94;nan;101306.53;5061878;28;20024;-49
2021/06/22 07:39:07;;;;;;;24.02;10.65;;;;;;;19.17;nan;101302.97;5065939;28;20550;-49
2021/06/22 07:41:34;;;;;;;23.13;9.93;;;;;;;19.36;nan;101297.53;5053466;28;20552;-51
2021/06/22 07:44:00;;;;;;;27.25;9.98;;;;;;;19.43;nan;101305.34;5064551;28;20136;-51
2021/06/22 07:46:25;;;;;;;29.15;10.45;;;;;;;19.37;nan;101304.59;5066843;28;20107;-48
2021/06/22 07:48:51;;;;;;;21.75;9.68;;;;;;;19.63;nan;101307.00;5069459;28;20024;-48
2021/06/22 07:51:16;;;;;;;18.45;9.85;;;;;;;19.99;nan;101304.53;5066079;28;20151;-49
2021/06/22 07:53:42;;;;;;;15.10;8.43;;;;;;;20.45;nan;101307.25;5069643;28;20424;-49
2021/06/22 07:56:07;;;;;;;13.25;7.68;;;;;;;20.63;nan;101297.38;5062966;28;20042;-48
2021/06/22 07:58:33;;;;;;;14.30;7.28;;;;;;;20.94;nan;101303.84;5067522;28;20383;-49
2021/06/22 08:00:59;;;;;;;13.27;7.43;;;;;;;21.07;nan;101313.13;5058521;28;20028;-48
2021/06/22 08:03:27;;;;;;;15.13;7.53;;;;;;;20.67;nan;101317.47;5063900;28;20024;-49
2021/06/22 08:05:53;;;;;;;18.75;8.40;;;;;;;20.87;nan;101325.25;5064296;28;20060;-48
2021/06/22 08:08:20;;;;;;;13.52;7.30;;;;;;;21.00;nan;101320.88;5062949;28;20032;-49
2021/06/22 08:10:51;;;;;;;16.67;7.25;;;;;;;21.25;nan;101334.00;5064244;28;20028;-48
2021/06/22 08:13:18;;;;;;;14.43;8.52;;;;;;;21.06;nan;101342.28;5065662;28;20024;-48
2021/06/22 08:15:43;;;;;;;14.18;7.32;;;;;;;20.73;nan;101346.22;5064492;28;20037;-49
2021/06/22 08:18:09;;;;;;;9.70;6.68;;;;;;;20.55;nan;101352.53;5065644;28;20081;-49
2021/06/22 08:20:36;;;;;;;16.05;7.55;;;;;;;20.39;nan;101349.25;5064495;28;20467;-48
2021/06/22 08:23:02;;;;;;;16.58;7.30;;;;;;;20.38;nan;101345.72;5061216;28;20061;-48
2021/06/22 08:25:28;;;;;;;14.30;8.32;;;;;;;20.54;nan;101343.56;5057134;28;20048;-49
2021/06/22 08:27:55;;;;;;;21.67;8.80;;;;;;;20.82;nan;101347.13;5069071;28;20056;-48
2021/06/22 08:30:23;;;;;;;17.13;7.90;;;;;;;21.03;nan;101340.16;5060590;28;20060;-48
2021/06/22 08:32:49;;;;;;;16.88;8.35;;;;;;;21.02;nan;101338.56;5068215;28;20035;-48
2021/06/22 08:35:15;;;;;;;18.45;9.07;;;;;;;20.75;nan;101342.06;5066783;28;20032;-48
2021/06/22 08:37:41;;;;;;;19.13;8.10;;;;;;;20.81;nan;101338.13;5064603;28;20032;-48
2021/06/22 08:40:08;;;;;;;16.20;8.38;;;;;;;20.87;nan;101333.41;5063292;28;20374;-49
2021/06/22 08:42:36;;;;;;;17.55;7.85;;;;;;;20.85;nan;101341.09;5065451;28;20056;-48
2021/06/22 08:45:05;;;;;;;14.57;9.02;;;;;;;20.79;nan;101348.53;5066991;28;20023;-48
2021/06/22 08:47:30;;;;;;;13.35;7.95;;;;;;;20.50;nan;101350.72;5060069;28;20581;-49
2021/06/22 08:49:57;;;;;;;13.43;8.05;;;;;;;20.19;nan;101359.38;5066052;28;20698;-47
2021/06/22 08:52:24;;;;;;;16.92;6.50;;;;;;;20.35;nan;101351.78;5067090;28;20032;-49
2021/06/22 08:54:51;;;;;;;17.20;7.50;;;;;;;19.98;nan;101358.09;5065825;28;20126;-49
2021/06/22 08:57:17;;;;;;;9.05;6.30;;;;;;;20.27;nan;101365.25;5071203;28;20032;-49
2021/06/22 08:59:43;;;;;;;10.05;6.05;;;;;;;20.54;nan;101370.00;5068972;28;20400;-48
2021/06/22 09:02:09;;;;;;;13.95;6.63;;;;;;;20.29;nan;101368.47;5062942;28;20520;-49
2021/06/22 09:04:34;;;;;;;15.65;7.57;;;;;;;20.40;nan;101375.38;5066939;28;20032;-49
2021/06/22 09:07:00;;;;;;;9.60;6.65;;;;;;;20.49;nan;101370.91;5057363;28;20028;-48
2021/06/22 09:09:36;;;;;;;9.35;6.07;;;;;;;20.60;nan;101369.59;5060823;28;20033;-48
2021/06/22 09:12:04;;;;;;;11.07;6.22;;;;;;;20.71;nan;101362.84;5064251;28;20490;-48
2021/06/22 09:14:37;;;;;;;11.38;6.15;;;;;;;20.95;nan;101364.56;5065187;28;20029;-49
2021/06/22 09:17:05;;;;;;;10.07;6.10;;;;;;;21.12;nan;101359.31;5063065;28;20032;-48
2021/06/22 09:19:31;;;;;;;11.82;5.90;;;;;;;21.14;nan;101359.81;5061127;28;20033;-49
2021/06/22 09:22:12;;;;;;;9.70;5.47;;;;;;;21.16;nan;101364.97;5065325;28;20448;-48
2021/06/22 09:24:38;;;;;;;9.27;5.40;;;;;;;21.21;nan;101371.13;5064736;28;20500;-48
2021/06/22 09:27:03;;;;;;;9.52;5.65;;;;;;;21.28;nan;101370.75;5066521;28;20024;-48
2021/06/22 09:29:29;;;;;;;13.25;5.30;;;;;;;21.38;nan;101381.44;5059136;28;20032;-48
2021/06/22 09:31:57;;;;;;;10.55;4.50;;;;;;;21.44;nan;101382.94;5060963;28;20180;-49
2021/06/22 09:34:24;;;;;;;7.00;5.15;;;;;;;21.50;nan;101386.34;5061321;28;20043;-50
2021/06/22 09:36:55;;;;;;;6.97;4.70;;;;;;;21.41;nan;101395.28;5061095;28;20386;-49
2021/06/22 09:39:23;;;;;;;10.57;4.88;;;;;;;21.40;nan;101401.84;5060413;28;20038;-49
2021/06/22 09:41:50;;;;;;;7.13;4.85;;;;;;;21.33;nan;101415.06;5061544;28;20023;-48
2021/06/22 09:44:21;;;;;;;8.63;5.15;;;;;;;21.23;nan;101415.25;5066403;28;20063;-48
2021/06/22 09:46:55;;;;;;;7.05;4.80;;;;;;;21.12;nan;101416.53;5058436;28;20107;-48
2021/06/22 09:49:35;;;;;;;8.98;4.68;;;;;;;21.05;nan;101411.50;5061994;28;20036;-48
2021/06/22 09:52:05;;;;;;;10.65;4.35;;;;;;;21.11;nan;101409.47;5064309;28;20028;-48
2021/06/22 09:54:33;;;;;;;7.40;4.13;;;;;;;21.28;nan;101412.44;5071570;28;20039;-48
2021/06/22 09:57:14;;;;;;;6.15;4.30;;;;;;;21.31;nan;101403.66;5063115;28;20032;-49
2021/06/22 09:59:58;;;;;;;9.18;4.15;;;;;;;21.34;nan;101400.31;5056098;28;20029;-50
2021/06/22 10:02:25;;;;;;;7.13;4.28;;;;;;;21.23;nan;101407.06;5060901;28;20033;-48
2021/06/22 10:04:53;;;;;;;6.82;3.50;;;;;;;21.12;nan;101408.38;5057187;28;20035;-49
2021/06/22 10:07:22;;;;;;;5.50;3.60;;;;;;;21.10;nan;101416.03;5065188;28;20032;-48
2021/06/22 10:09:56;;;;;;;7.57;4.63;;;;;;;21.08;nan;101419.06;5057903;28;20145;-48
2021/06/22 10:12:26;;;;;;;13.02;4.60;;;;;;;21.02;nan;101420.28;5064555;28;20021;-48
2021/06/22 10:14:53;;;;;;;7.43;4.00;;;;;;;21.02;nan;101416.75;5060509;28;20487;-49
2021/06/22 10:17:21;;;;;;;9.77;3.70;;;;;;;20.97;nan;101425.81;5064520;28;20020;-49
2021/06/22 10:19:49;;;;;;;7.57;4.32;;;;;;;20.94;nan;101423.69;5052882;28;20028;-49
2021/06/22 10:22:16;;;;;;;8.57;4.70;;;;;;;20.60;nan;101429.47;5056398;28;20597;-48
2021/06/22 10:24:45;;;;;;;9.00;4.28;;;;;;;20.49;nan;101438.94;5059481;28;20111;-49
2021/06/22 10:27:19;;;;;;;9.13;4.38;;;;;;;20.25;nan;101436.28;5061315;28;20052;-47
2021/06/22 10:29:51;;;;;;;9.30;4.32;;;;;;;20.32;nan;101442.19;5059740;28;20024;-48
2021/06/22 10:32:18;;;;;;;5.63;3.88;;;;;;;20.14;nan;101441.09;5056630;28;20032;-50
2021/06/22 10:34:46;;;;;;;6.65;4.10;;;;;;;20.16;nan;101438.88;5057282;28;20502;-50
2021/06/22 10:37:22;;;;;;;7.32;4.35;;;;;;;20.21;nan;101446.97;5057184;28;20020;-49
2021/06/22 10:39:58;;;;;;;7.97;4.43;;;;;;;20.08;nan;101453.13;5055993;28;20040;-47
2021/06/22 10:42:23;;;;;;;5.65;4.40;;;;;;;19.91;nan;101459.09;5063186;28;20522;-48
2021/06/22 10:45:01;;;;;;;7.93;4.53;;;;;;;19.86;nan;101461.88;5053742;28;20054;-48
2021/06/22 10:47:30;;;;;;;7.32;4.30;;;;;;;20.07;nan;101456.97;5057588;28;20025;-48
2021/06/22 10:50:07;;;;;;;7.78;4.53;;;;;;;20.13;nan;101455.81;5056433;28;20082;-47
2021/06/22 10:52:49;;;;;;;6.30;4.30;;;;;;;20.40;nan;101446.13;5058200;28;20024;-48
2021/06/22 10:55:19;;;;;;;4.97;4.28;;;;;;;20.66;nan;101441.91;5059355;28;20635;-51
2021/06/22 10:58:00;;;;;;;5.65;4.47;;;;;;;20.55;nan;101456.81;5057569;28;20129;-48
2021/06/22 11:00:28;;;;;;;5.82;4.43;;;;;;;20.26;nan;101470.56;5058038;28;20016;-48
2021/06/22 11:03:07;;;;;;;7.57;3.97;;;;;;;20.04;nan;101486.66;5056407;28;20111;-48
2021/06/22 11:05:37;;;;;;;7.82;4.75;;;;;;;19.69;nan;101498.81;5055874;28;20036;-48
2021/06/22 11:08:15;;;;;;;9.30;4.95;;;;;;;19.39;nan;101495.34;5060731;28;20020;-48
2021/06/22 11:10:46;;;;;;;6.22;4.00;;;;;;;19.72;nan;101485.44;5057764;28;20517;-48
2021/06/22 11:13:33;;;;;;;7.07;3.90;;;;;;;19.73;nan;101486.25;5053424;28;20123;-48
2021/06/22 11:16:04;;;;;;;5.93;4.30;;;;;;;19.65;nan;101490.44;5058050;28;20502;-49
2021/06/22 11:21:43;;;;;;;5.85;4.13;;;;;;;19.61;nan;101497.56;5058154;28;20068;-50
2021/06/22 11:24:21;;;;;;;4.78;4.15;;;;;;;19.24;nan;101506.38;5053139;28;20082;-48
2021/06/22 11:26:50;;;;;;;6.28;3.88;;;;;;;19.59;nan;101502.50;5057003;28;21042;-48
2021/06/22 11:29:22;;;;;;;4.25;3.85;;;;;;;19.64;nan;101507.06;5057421;28;20044;-48
2021/06/22 11:31:51;;;;;;;5.35;4.35;;;;;;;19.67;nan;101509.19;5055790;28;20025;-48
2021/06/22 11:34:24;;;;;;;7.63;4.10;;;;;;;19.30;nan;101500.59;5058668;28;20028;-48